Time;durP1;ratioP1;P1;durP2;ratioP2;P2;SDS_P1;SDS_P2;PMS_P1;PMS_P2;Temp;Humidity;BMP_temperature;BMP_pressure;BME280_temperature;BME280_humidity;BME280_pressure;Samples;Min_cycle;Max_cycle;Signal;HPM_P1;HPM_P2
2022/03/26 00:00:22;;;;;;;3.20;0.82;;;;;;;20.83;37.89;100165.78;4200271;28;20044;-66
2022/03/26 00:02:23;;;;;;;2.90;0.90;;;;;;;20.84;37.95;100178.56;4199255;28;20097;-66
2022/03/26 00:04:33;;;;;;;3.85;1.08;;;;;;;20.81;38.00;100175.25;4199214;28;20098;-67
2022/03/26 00:06:35;;;;;;;3.58;1.20;;;;;;;20.84;38.03;100184.13;4200702;28;20361;-66
2022/03/26 00:08:36;;;;;;;2.17;1.02;;;;;;;20.84;37.61;100184.94;4199335;28;20037;-67
2022/03/26 00:10:38;;;;;;;2.00;0.95;;;;;;;20.74;37.63;100169.22;4193907;28;20044;-67
2022/03/26 00:12:40;;;;;;;1.50;0.75;;;;;;;20.84;37.85;100195.25;4200205;28;20029;-67
2022/03/26 00:14:41;;;;;;;0.93;0.85;;;;;;;20.84;37.63;100200.81;4200701;28;20033;-67
2022/03/26 00:16:43;;;;;;;3.95;1.15;;;;;;;20.84;37.92;100198.03;4200671;28;20086;-67
2022/03/26 00:18:44;;;;;;;2.20;0.95;;;;;;;20.83;37.83;100202.75;4199963;28;20098;-67
2022/03/26 00:20:46;;;;;;;2.83;1.30;;;;;;;20.83;37.88;100202.75;4199920;28;20542;-66
2022/03/26 00:22:47;;;;;;;1.35;1.00;;;;;;;20.79;37.83;100194.19;4199506;28;20045;-67
2022/03/26 00:24:49;;;;;;;1.35;1.08;;;;;;;20.83;37.88;100199.16;4199804;28;20044;-67
2022/03/26 00:26:52;;;;;;;3.35;1.05;;;;;;;20.81;37.91;100199.47;4186318;28;20118;-67
2022/03/26 00:28:54;;;;;;;2.60;1.13;;;;;;;20.76;37.52;100197.56;4199655;28;20472;-67
2022/03/26 00:30:56;;;;;;;1.33;1.00;;;;;;;20.83;37.73;100210.28;4180857;28;20029;-67
2022/03/26 00:32:57;;;;;;;3.25;0.80;;;;;;;20.83;37.41;100210.28;4199794;28;20093;-67
2022/03/26 00:35:02;;;;;;;2.20;0.70;;;;;;;20.79;37.79;100210.88;4199791;28;20086;-66
2022/03/26 00:37:05;;;;;;;2.10;1.27;;;;;;;20.81;37.53;100208.63;4198456;28;20114;-67
2022/03/26 00:39:07;;;;;;;1.52;1.08;;;;;;;20.80;37.61;100220.03;4199916;28;20032;-67
2022/03/26 00:41:08;;;;;;;1.83;0.90;;;;;;;20.81;37.45;100219.75;4182126;28;20025;-67
2022/03/26 00:43:09;;;;;;;5.15;1.00;;;;;;;20.81;37.53;100225.31;4198869;28;20048;-67
2022/03/26 00:45:11;;;;;;;2.42;0.90;;;;;;;20.79;37.73;100230.31;4199481;28;20040;-67
2022/03/26 00:47:15;;;;;;;1.55;1.10;;;;;;;20.81;37.54;100235.63;4200113;28;20417;-68
2022/03/26 00:49:21;;;;;;;1.77;0.90;;;;;;;20.80;37.57;100228.38;4199875;28;20036;-67
2022/03/26 00:51:27;;;;;;;1.63;0.85;;;;;;;20.76;37.52;100219.00;4198495;28;20102;-67
2022/03/26 00:53:29;;;;;;;0.88;0.82;;;;;;;20.81;37.68;100230.88;4199712;28;20041;-67
2022/03/26 00:55:30;;;;;;;1.95;1.20;;;;;;;20.80;37.45;100232.00;4199265;28;20484;-67
2022/03/26 00:57:32;;;;;;;0.93;0.80;;;;;;;20.83;37.39;100243.66;4199568;28;20044;-67
2022/03/26 00:59:33;;;;;;;1.73;1.10;;;;;;;20.81;37.43;100242.00;4199187;28;20048;-67
2022/03/26 01:01:35;;;;;;;1.83;1.02;;;;;;;20.79;37.72;100243.41;4199545;28;20094;-67
2022/03/26 01:03:36;;;;;;;3.38;1.45;;;;;;;20.81;37.72;100252.28;4201231;28;20041;-68
2022/03/26 01:05:38;;;;;;;1.60;0.80;;;;;;;20.80;37.57;100251.47;4198202;28;20098;-68
2022/03/26 01:07:42;;;;;;;1.70;0.93;;;;;;;20.80;37.78;100251.47;4198701;28;20094;-68
2022/03/26 01:09:44;;;;;;;1.08;0.90;;;;;;;20.80;37.31;100245.91;4199577;28;20094;-68
2022/03/26 01:11:45;;;;;;;1.27;0.88;;;;;;;20.80;37.38;100257.03;4181568;28;20053;-68
2022/03/26 01:13:48;;;;;;;1.17;0.98;;;;;;;20.80;37.33;100257.03;4198886;28;20106;-68
2022/03/26 01:15:52;;;;;;;1.88;1.00;;;;;;;20.80;37.53;100268.16;4198920;28;20029;-68
2022/03/26 01:17:53;;;;;;;1.55;1.15;;;;;;;20.81;37.72;100264.25;4199130;28;20041;-66
2022/03/26 01:19:55;;;;;;;1.27;1.00;;;;;;;20.81;37.49;100268.97;4199460;28;20097;-66
2022/03/26 01:21:59;;;;;;;2.03;0.93;;;;;;;20.80;37.64;100267.31;4198753;28;20098;-65
2022/03/26 01:24:00;;;;;;;1.85;1.17;;;;;;;20.80;37.35;100279.28;4199104;28;20040;-67
2022/03/26 01:26:03;;;;;;;2.08;1.45;;;;;;;20.81;37.53;100280.94;4198056;28;20484;-67
2022/03/26 01:28:04;;;;;;;2.35;1.00;;;;;;;20.80;37.45;100279.28;4195526;28;20036;-67
2022/03/26 01:30:09;;;;;;;2.55;1.30;;;;;;;20.80;37.31;100279.28;4199012;28;20086;-67
2022/03/26 01:32:11;;;;;;;1.85;1.08;;;;;;;20.78;37.72;100275.94;4198378;28;20472;-66
2022/03/26 01:34:13;;;;;;;1.17;1.08;;;;;;;20.77;37.71;100282.66;4198456;28;20048;-67
2022/03/26 01:36:15;;;;;;;1.92;1.20;;;;;;;20.80;37.64;100284.84;4181726;28;20102;-67
2022/03/26 01:38:16;;;;;;;1.10;0.88;;;;;;;20.79;37.55;100288.72;4193380;28;20492;-67
2022/03/26 01:40:18;;;;;;;2.17;1.20;;;;;;;20.80;37.18;100283.97;4198847;28;20044;-67
2022/03/26 01:42:20;;;;;;;1.48;1.02;;;;;;;20.75;37.25;100276.53;4198206;28;20086;-67
2022/03/26 01:44:21;;;;;;;1.35;1.00;;;;;;;20.79;37.46;100283.16;4198718;28;20476;-67
2022/03/26 01:46:23;;;;;;;1.25;1.00;;;;;;;20.79;37.67;100283.16;4180570;28;20087;-66
2022/03/26 01:48:25;;;;;;;1.98;0.93;;;;;;;20.80;37.32;100282.06;4197032;28;20048;-67
2022/03/26 01:50:28;;;;;;;1.00;0.90;;;;;;;20.73;37.55;100272.41;4198949;28;20668;-66
2022/03/26 01:52:29;;;;;;;1.40;1.13;;;;;;;20.78;37.60;100281.50;4198694;28;20352;-67
2022/03/26 01:54:32;;;;;;;2.58;1.00;;;;;;;20.79;37.31;100277.59;4198789;28;20024;-67
2022/03/26 01:56:34;;;;;;;1.20;1.10;;;;;;;20.79;37.29;100283.16;4198021;28;20036;-67
2022/03/26 01:58:35;;;;;;;1.17;1.08;;;;;;;20.79;37.52;100282.34;4198166;28;20369;-67
2022/03/26 02:00:37;;;;;;;2.65;1.05;;;;;;;20.77;37.53;100279.03;4198559;28;20365;-67
2022/03/26 02:02:43;;;;;;;1.27;1.08;;;;;;;20.80;37.24;100278.41;4198334;28;20466;-68
2022/03/26 02:04:47;;;;;;;1.30;1.15;;;;;;;20.78;37.55;100278.72;4195687;28;20045;-68
2022/03/26 02:06:49;;;;;;;2.63;1.05;;;;;;;20.77;37.27;100268.75;4198275;28;20097;-67
2022/03/26 02:08:50;;;;;;;1.27;1.10;;;;;;;20.79;37.57;100277.59;4196875;28;20040;-67
2022/03/26 02:10:54;;;;;;;1.75;1.30;;;;;;;20.78;37.26;100281.50;4197747;28;20036;-67
2022/03/26 02:12:56;;;;;;;2.70;1.30;;;;;;;20.78;37.64;100278.72;4198495;28;20028;-67
2022/03/26 02:15:04;;;;;;;1.02;0.80;;;;;;;20.77;37.64;100279.03;4197408;28;20040;-67
2022/03/26 02:17:05;;;;;;;1.20;1.00;;;;;;;20.79;37.29;100283.16;4197849;28;20040;-67
2022/03/26 02:19:11;;;;;;;1.38;1.10;;;;;;;20.77;37.26;100273.47;4197282;28;20078;-67
2022/03/26 02:21:13;;;;;;;1.85;1.10;;;;;;;20.78;37.45;100280.69;4198030;28;20090;-67
2022/03/26 02:23:14;;;;;;;3.47;1.23;;;;;;;20.78;37.32;100278.72;4198210;28;20073;-68
2022/03/26 02:25:17;;;;;;;1.15;1.05;;;;;;;20.78;37.36;100278.72;4198061;28;20036;-67
2022/03/26 02:27:22;;;;;;;1.90;1.10;;;;;;;20.78;37.56;100278.72;4197939;28;20044;-68
2022/03/26 02:29:25;;;;;;;1.23;1.10;;;;;;;20.78;37.46;100275.94;4198344;28;20094;-69
2022/03/26 02:31:27;;;;;;;2.10;1.90;;;;;;;20.76;37.30;100277.38;4180072;28;20037;-67
2022/03/26 02:33:28;;;;;;;1.38;0.98;;;;;;;20.71;37.21;100260.72;4197935;28;20040;-68
2022/03/26 02:35:30;;;;;;;1.42;1.10;;;;;;;20.76;37.23;100272.66;4198555;28;20028;-68
2022/03/26 02:37:32;;;;;;;1.52;1.00;;;;;;;20.78;37.32;100286.25;4197946;28;20048;-67
2022/03/26 02:39:34;;;;;;;1.92;1.27;;;;;;;20.77;37.55;100279.88;4198300;28;20405;-67
2022/03/26 02:41:35;;;;;;;2.35;1.00;;;;;;;20.76;37.56;100278.22;4195018;28;20044;-67
2022/03/26 02:43:37;;;;;;;1.60;1.30;;;;;;;20.76;37.29;100271.81;4197654;28;20036;-67
2022/03/26 02:45:43;;;;;;;1.25;1.15;;;;;;;20.76;37.23;100275.44;4198205;28;20480;-68
2022/03/26 02:47:51;;;;;;;1.60;1.15;;;;;;;20.73;37.16;100267.66;4198097;28;20472;-67
2022/03/26 02:49:53;;;;;;;1.17;1.08;;;;;;;20.77;37.43;100271.53;4197757;28;20033;-66
2022/03/26 02:51:54;;;;;;;1.60;1.50;;;;;;;20.76;37.64;100267.09;4197873;28;20078;-66
2022/03/26 02:53:56;;;;;;;2.00;1.30;;;;;;;20.77;37.51;100277.06;4197812;28;20517;-66
2022/03/26 02:55:57;;;;;;;1.52;1.10;;;;;;;20.76;37.44;100278.22;4197597;28;20480;-66
2022/03/26 02:57:58;;;;;;;1.63;1.33;;;;;;;20.75;37.46;100275.69;4197313;28;20098;-66
2022/03/26 03:00:00;;;;;;;1.20;1.02;;;;;;;20.76;37.49;100283.78;4197512;28;20036;-66
2022/03/26 03:02:02;;;;;;;1.80;1.00;;;;;;;20.76;37.70;100275.44;4197284;28;20049;-67
2022/03/26 03:04:04;;;;;;;1.27;1.17;;;;;;;20.77;37.38;100276.25;4197562;28;20418;-66
2022/03/26 03:06:06;;;;;;;1.20;1.05;;;;;;;20.74;37.38;100269.31;4197717;28;20045;-66
2022/03/26 03:08:08;;;;;;;1.10;1.00;;;;;;;20.74;37.16;100269.31;4197408;28;20036;-66
2022/03/26 03:10:11;;;;;;;1.42;1.13;;;;;;;20.76;37.58;100272.66;4180412;28;20036;-66
2022/03/26 03:12:13;;;;;;;1.50;1.20;;;;;;;20.75;37.31;100270.97;4196905;28;20052;-66
2022/03/26 03:14:14;;;;;;;3.28;1.40;;;;;;;20.76;37.35;100271.81;4197501;28;20036;-66
2022/03/26 03:16:16;;;;;;;2.00;1.15;;;;;;;20.72;37.44;100263.25;4197937;28;20086;-66
2022/03/26 03:18:20;;;;;;;1.58;1.27;;;;;;;20.73;37.44;100273.22;4196368;28;20048;-66
2022/03/26 03:20:21;;;;;;;1.77;1.40;;;;;;;20.73;37.09;100267.66;4197913;28;20542;-66
2022/03/26 03:22:23;;;;;;;1.55;1.17;;;;;;;20.75;37.18;100270.97;4196881;28;20040;-65
2022/03/26 03:24:24;;;;;;;1.45;1.05;;;;;;;20.76;37.35;100271.81;4197434;28;20118;-67
2022/03/26 03:26:28;;;;;;;1.20;1.10;;;;;;;20.75;37.58;100270.97;4197311;28;20037;-66
2022/03/26 03:28:29;;;;;;;1.15;1.08;;;;;;;20.74;37.19;100266.53;4198077;28;20037;-66
2022/03/26 03:30:33;;;;;;;3.53;1.52;;;;;;;20.74;37.01;100263.75;4210103;28;20475;-66
2022/03/26 03:32:35;;;;;;;6.78;1.52;;;;;;;20.74;37.57;100263.75;4203635;28;20044;-66
2022/03/26 03:34:36;;;;;;;3.85;1.50;;;;;;;20.75;37.43;100259.84;4200587;28;20032;-66
2022/03/26 03:36:37;;;;;;;21.88;2.20;;;;;;;20.74;37.57;100258.19;4200398;28;20078;-66
2022/03/26 03:38:41;;;;;;;8.60;1.70;;;;;;;20.75;37.43;100254.28;4200889;28;20101;-66
2022/03/26 03:40:42;;;;;;;79.53;32.42;;;;;;;20.74;37.49;100252.63;4206209;28;20048;-66
2022/03/26 03:42:45;;;;;;;208.13;102.30;;;;;;;20.73;37.30;100252.94;4217389;28;20028;-67
2022/03/26 03:44:46;;;;;;;86.43;41.15;;;;;;;20.73;37.48;100248.22;4211034;28;20423;-66
2022/03/26 03:46:47;;;;;;;59.00;27.33;;;;;;;20.74;37.01;100243.47;4201103;28;20029;-67
2022/03/26 03:48:49;;;;;;;38.70;15.20;;;;;;;20.74;36.60;100240.69;4201080;28;20036;-66
2022/03/26 03:50:53;;;;;;;36.17;16.13;;;;;;;20.73;37.02;100239.88;4182926;28;20071;-66
2022/03/26 03:52:54;;;;;;;24.27;11.95;;;;;;;20.71;36.49;100231.00;4199443;28;20419;-66
2022/03/26 03:54:55;;;;;;;20.95;10.40;;;;;;;20.73;36.73;100234.31;4182299;28;20091;-66
2022/03/26 03:56:57;;;;;;;71.00;36.25;;;;;;;20.72;36.83;100241.00;4197789;28;20475;-66
2022/03/26 03:58:58;;;;;;;45.55;23.25;;;;;;;20.71;36.67;100231.00;4200310;28;20090;-66
2022/03/26 04:01:03;;;;;;;41.90;16.67;;;;;;;20.71;37.07;100231.00;4200813;28;20036;-67
2022/03/26 04:03:05;;;;;;;37.40;16.17;;;;;;;20.72;36.79;100232.66;4200604;28;20098;-66
2022/03/26 04:05:13;;;;;;;56.20;17.80;;;;;;;20.69;37.08;100227.69;4200107;28;20032;-66
2022/03/26 04:07:14;;;;;;;32.17;12.77;;;;;;;20.71;36.54;100222.66;4199450;28;20384;-66
2022/03/26 04:09:16;;;;;;;49.90;14.18;;;;;;;20.60;36.36;100217.50;4199497;28;20036;-66
2022/03/26 04:11:17;;;;;;;49.42;17.77;;;;;;;20.72;36.63;100226.28;4199882;28;20044;-66
2022/03/26 04:13:21;;;;;;;51.25;17.73;;;;;;;20.71;36.59;100219.88;4199076;28;20106;-66
2022/03/26 04:15:23;;;;;;;34.70;9.97;;;;;;;20.67;36.59;100213.25;4200197;28;20546;-66
2022/03/26 04:17:24;;;;;;;27.15;10.35;;;;;;;20.71;36.59;100219.88;4200350;28;20032;-66
2022/03/26 04:19:25;;;;;;;30.92;11.70;;;;;;;20.71;36.75;100217.09;4200533;28;20468;-66
2022/03/26 04:21:27;;;;;;;27.88;11.63;;;;;;;20.71;36.49;100225.44;4199837;28;20044;-64
2022/03/26 04:23:28;;;;;;;65.53;12.55;;;;;;;20.71;36.62;100225.44;4199549;28;20094;-64
2022/03/26 04:25:31;;;;;;;45.95;12.25;;;;;;;20.70;36.34;100215.44;4199758;28;20040;-64
2022/03/26 04:27:33;;;;;;;36.88;12.52;;;;;;;20.70;36.47;100218.22;4199821;28;20094;-63
2022/03/26 04:29:34;;;;;;;25.25;12.77;;;;;;;20.69;36.66;100205.44;4200475;28;20074;-63
2022/03/26 04:31:35;;;;;;;25.45;12.27;;;;;;;20.71;36.79;100214.31;4164723;28;20595;-63
2022/03/26 04:33:37;;;;;;;43.17;10.07;;;;;;;20.70;36.56;100204.31;4190263;28;20086;-63
2022/03/26 04:35:38;;;;;;;28.58;11.60;;;;;;;20.69;36.22;100202.66;4200095;28;20045;-62
2022/03/26 04:37:41;;;;;;;33.38;11.82;;;;;;;20.71;36.32;100203.22;4200612;28;20044;-63
2022/03/26 04:39:45;;;;;;;29.67;11.07;;;;;;;20.70;36.60;100201.53;4204206;28;20549;-63
2022/03/26 04:41:49;;;;;;;20.00;11.52;;;;;;;20.65;36.45;100193.25;4204102;28;20538;-63
2022/03/26 04:43:51;;;;;;;20.75;10.93;;;;;;;20.70;36.74;100201.53;4205128;28;20094;-63
2022/03/26 04:45:52;;;;;;;24.67;12.18;;;;;;;20.68;36.73;100198.22;4204911;28;20105;-63
2022/03/26 04:47:56;;;;;;;26.02;10.75;;;;;;;20.70;36.38;100201.53;4204358;28;20314;-62
2022/03/26 04:49:58;;;;;;;19.63;10.88;;;;;;;20.70;36.56;100195.97;4204701;28;20037;-63
2022/03/26 04:51:59;;;;;;;21.13;10.73;;;;;;;20.66;36.52;100186.56;4204495;28;20032;-63
2022/03/26 04:54:01;;;;;;;19.58;10.25;;;;;;;20.69;36.23;100199.88;4204234;28;20040;-63
2022/03/26 04:56:02;;;;;;;13.60;10.70;;;;;;;20.69;36.27;100191.53;4201814;28;20040;-64
2022/03/26 04:58:04;;;;;;;20.10;9.45;;;;;;;20.67;36.47;100196.59;4200685;28;20040;-63
2022/03/26 05:00:06;;;;;;;16.85;10.23;;;;;;;20.69;36.27;100196.28;4200253;28;20044;-63
2022/03/26 05:02:08;;;;;;;14.50;9.20;;;;;;;20.68;36.05;100192.66;4199576;28;20109;-63
2022/03/26 05:04:12;;;;;;;19.63;9.10;;;;;;;20.67;36.12;100196.59;4199733;28;20098;-63
2022/03/26 05:06:14;;;;;;;14.63;9.00;;;;;;;20.68;36.12;100201.00;4199806;28;20041;-63
2022/03/26 05:08:16;;;;;;;13.82;8.13;;;;;;;20.66;36.24;100186.56;4199520;28;20446;-63
2022/03/26 05:10:28;;;;;;;12.93;8.25;;;;;;;20.66;36.52;100194.06;4199543;28;20082;-62
2022/03/26 05:12:30;;;;;;;14.50;8.63;;;;;;;20.67;36.16;100179.91;4198907;28;20561;-62
2022/03/26 05:14:33;;;;;;;11.88;8.60;;;;;;;20.66;36.27;100177.41;4199028;28;20044;-63
2022/03/26 05:16:35;;;;;;;13.13;9.80;;;;;;;20.66;36.63;100178.22;4199317;28;20040;-62
2022/03/26 05:18:36;;;;;;;11.98;9.98;;;;;;;20.66;36.63;100178.22;4199093;28;20480;-63
2022/03/26 05:20:38;;;;;;;19.55;12.98;;;;;;;20.65;36.56;100176.56;4199340;28;20037;-63
2022/03/26 05:22:41;;;;;;;56.85;36.47;;;;;;;20.64;36.15;100169.38;4198772;28;20044;-63
2022/03/26 05:24:42;;;;;;;63.42;39.83;;;;;;;20.65;36.08;100176.56;4198929;28;20099;-63
2022/03/26 05:26:46;;;;;;;63.00;42.95;;;;;;;20.65;36.47;100171.00;4199078;28;20094;-64
2022/03/26 05:28:48;;;;;;;71.03;43.88;;;;;;;20.66;35.86;100177.41;4199698;28;20033;-63
2022/03/26 05:30:50;;;;;;;74.20;51.03;;;;;;;20.64;35.68;100174.94;4198709;28;20016;-63
2022/03/26 05:32:51;;;;;;;59.90;39.10;;;;;;;20.61;35.90;100161.63;4198124;28;20044;-62
2022/03/26 05:34:53;;;;;;;75.40;38.17;;;;;;;20.64;35.60;100161.03;4198339;28;20036;-63
2022/03/26 05:36:54;;;;;;;58.13;37.40;;;;;;;20.64;35.40;100166.59;4198274;28;20036;-63
2022/03/26 05:38:56;;;;;;;67.30;39.78;;;;;;;20.64;35.41;100152.69;4198637;28;20101;-63
2022/03/26 05:40:57;;;;;;;66.53;42.33;;;;;;;20.64;35.20;100146.31;4198509;28;20095;-63
2022/03/26 05:43:01;;;;;;;60.17;37.72;;;;;;;20.63;35.58;100145.47;4197700;28;20040;-63
2022/03/26 05:45:07;;;;;;;55.55;37.90;;;;;;;20.62;35.47;100149.41;4200057;28;20040;-63
2022/03/26 05:47:09;;;;;;;60.10;38.58;;;;;;;20.60;35.39;100151.63;4200420;28;20431;-63
2022/03/26 05:49:10;;;;;;;70.18;42.08;;;;;;;20.63;35.22;100159.38;4199727;28;20094;-63
2022/03/26 05:51:12;;;;;;;54.50;35.47;;;;;;;20.62;35.64;100157.72;4199399;28;20486;-63
2022/03/26 05:53:13;;;;;;;48.30;28.02;;;;;;;20.61;35.73;100142.16;4198565;28;20078;-63
2022/03/26 05:55:16;;;;;;;45.20;31.13;;;;;;;20.61;35.76;100146.88;4199063;28;20048;-63
2022/03/26 05:57:20;;;;;;;53.92;34.15;;;;;;;20.62;35.80;100143.84;4198298;28;20040;-63
2022/03/26 05:59:26;;;;;;;55.45;34.35;;;;;;;20.61;35.80;100147.72;4198382;28;20037;-63
2022/03/26 06:01:27;;;;;;;49.65;33.85;;;;;;;20.62;35.54;100137.41;4196509;28;20028;-64
2022/03/26 06:03:29;;;;;;;58.65;35.70;;;;;;;20.62;35.46;100132.72;4195839;28;20063;-63
2022/03/26 06:05:39;;;;;;;63.67;37.03;;;;;;;20.63;35.47;100133.53;4197827;28;20545;-63
2022/03/26 06:07:40;;;;;;;44.75;31.02;;;;;;;20.63;35.37;100134.38;4198402;28;20476;-63
2022/03/26 06:09:44;;;;;;;49.25;34.70;;;;;;;20.63;35.57;100131.59;4196947;28;20040;-63
2022/03/26 06:11:46;;;;;;;36.20;27.10;;;;;;;20.63;35.84;100131.59;4197515;28;20098;-63
2022/03/26 06:13:47;;;;;;;45.63;33.35;;;;;;;20.64;35.71;100127.66;4197487;28;20755;-63
2022/03/26 06:15:48;;;;;;;51.63;35.45;;;;;;;20.64;35.58;100124.88;4197759;28;20094;-63
2022/03/26 06:17:52;;;;;;;37.92;26.70;;;;;;;20.61;35.79;100119.09;4197905;28;20573;-63
2022/03/26 06:19:54;;;;;;;39.80;28.25;;;;;;;20.64;35.83;100122.09;4198610;28;20040;-63
2022/03/26 06:21:55;;;;;;;49.38;32.88;;;;;;;20.64;35.84;100119.31;4198010;28;20090;-63
2022/03/26 06:23:58;;;;;;;45.35;28.45;;;;;;;20.64;35.54;100124.88;4197686;28;20534;-63
2022/03/26 06:26:02;;;;;;;41.67;30.83;;;;;;;20.63;35.54;100128.81;4198286;28;20541;-63
2022/03/26 06:28:04;;;;;;;44.17;27.92;;;;;;;20.64;35.79;100116.53;4197585;28;20487;-64
2022/03/26 06:30:06;;;;;;;40.67;28.48;;;;;;;20.63;35.81;100111.28;4196530;28;20040;-63
2022/03/26 06:32:08;;;;;;;40.38;28.30;;;;;;;20.64;35.98;100104.59;4196959;28;20032;-63
2022/03/26 06:34:10;;;;;;;43.13;28.83;;;;;;;20.61;35.66;100097.69;4198256;28;20101;-63
2022/03/26 06:36:13;;;;;;;41.92;28.63;;;;;;;20.64;35.78;100107.38;4195973;28;20028;-64
2022/03/26 06:38:14;;;;;;;42.33;29.05;;;;;;;20.64;36.03;100108.22;4197832;28;20437;-64
2022/03/26 06:40:16;;;;;;;41.05;28.67;;;;;;;20.63;35.85;100101.00;4214407;28;20110;-63
2022/03/26 06:42:17;;;;;;;43.63;29.75;;;;;;;20.65;35.71;100109.84;4195382;28;20106;-63
2022/03/26 06:44:24;;;;;;;40.58;29.05;;;;;;;20.64;35.43;100102.66;4197061;28;20094;-63
2022/03/26 06:46:25;;;;;;;36.42;26.83;;;;;;;20.62;35.84;100093.78;4197128;28;20102;-63
2022/03/26 06:48:26;;;;;;;36.58;24.73;;;;;;;20.65;36.06;100090.41;4197846;28;20430;-63
2022/03/26 06:50:31;;;;;;;36.15;25.08;;;;;;;20.63;35.74;100095.44;4197782;28;20075;-63
2022/03/26 06:52:32;;;;;;;34.97;25.67;;;;;;;20.62;35.60;100085.47;4196810;28;20097;-63
2022/03/26 06:54:33;;;;;;;31.85;23.55;;;;;;;20.63;35.71;100084.31;4197290;28;20655;-62
2022/03/26 06:56:38;;;;;;;32.60;23.15;;;;;;;20.66;35.85;100085.66;4197099;28;20105;-63
2022/03/26 06:58:39;;;;;;;31.10;23.95;;;;;;;20.66;36.06;100083.69;4197144;28;20110;-63
2022/03/26 07:00:41;;;;;;;34.70;25.02;;;;;;;20.67;35.52;100084.56;4197389;28;20040;-63
2022/03/26 07:02:46;;;;;;;35.53;24.80;;;;;;;20.66;35.93;100078.16;4197307;28;20100;-63
2022/03/26 07:04:47;;;;;;;32.25;23.42;;;;;;;20.66;35.85;100083.69;4196938;28;20040;-63
2022/03/26 07:06:48;;;;;;;36.38;23.65;;;;;;;20.66;35.36;100080.94;4197306;28;20040;-63
2022/03/26 07:08:50;;;;;;;30.35;21.40;;;;;;;20.63;35.77;100070.44;4197251;28;20052;-63
2022/03/26 07:10:54;;;;;;;32.03;22.35;;;;;;;20.65;36.01;100070.94;4197997;28;20517;-63
2022/03/26 07:12:55;;;;;;;33.20;23.73;;;;;;;20.64;35.59;100069.28;4196513;28;20037;-63
2022/03/26 07:14:57;;;;;;;32.05;20.63;;;;;;;20.65;35.76;100059.00;4197276;28;20056;-62
2022/03/26 07:16:59;;;;;;;30.95;22.10;;;;;;;20.65;35.57;100061.78;4196696;28;20032;-63
2022/03/26 07:19:06;;;;;;;32.35;21.88;;;;;;;20.65;35.67;100059.81;4197772;28;20094;-63
2022/03/26 07:21:08;;;;;;;27.83;20.60;;;;;;;20.62;35.87;100054.03;4196334;28;20036;-63
2022/03/26 07:23:09;;;;;;;28.15;19.95;;;;;;;20.64;35.42;100052.63;4196795;28;20086;-62
2022/03/26 07:25:11;;;;;;;31.02;22.10;;;;;;;20.65;35.52;100043.13;4197046;28;20380;-63
2022/03/26 07:27:15;;;;;;;27.80;19.90;;;;;;;20.64;35.79;100041.50;4197266;28;20122;-62
2022/03/26 07:29:16;;;;;;;27.58;19.63;;;;;;;20.63;35.82;100027.91;4197802;28;20036;-62
2022/03/26 07:31:18;;;;;;;26.55;19.75;;;;;;;20.64;35.37;100035.94;4196069;28;20063;-62
2022/03/26 07:33:20;;;;;;;31.55;21.02;;;;;;;20.64;35.35;100030.38;4197222;28;20020;-63
2022/03/26 07:35:22;;;;;;;26.95;19.95;;;;;;;20.65;35.52;100033.97;4197534;28;20113;-63
2022/03/26 07:37:24;;;;;;;29.77;19.83;;;;;;;20.64;35.45;100019.25;4197566;28;20040;-63
2022/03/26 07:39:26;;;;;;;27.13;20.30;;;;;;;20.64;35.66;100018.44;4197439;28;20045;-63
2022/03/26 07:41:27;;;;;;;24.52;18.50;;;;;;;20.64;35.49;100019.25;4197335;28;20534;-63
2022/03/26 07:43:28;;;;;;;28.90;19.67;;;;;;;20.63;35.50;100017.59;4197502;28;20037;-63
2022/03/26 07:45:30;;;;;;;24.13;18.05;;;;;;;20.61;35.53;100013.47;4196067;28;20369;-62
2022/03/26 07:47:38;;;;;;;26.60;19.20;;;;;;;20.65;35.81;100014.50;4197202;28;20032;-63
2022/03/26 07:49:39;;;;;;;24.55;17.70;;;;;;;20.65;35.44;100022.84;4197509;28;20049;-63
2022/03/26 07:51:40;;;;;;;25.33;18.85;;;;;;;20.65;35.54;100014.50;4197251;28;20082;-63
2022/03/26 07:53:42;;;;;;;28.52;18.52;;;;;;;20.65;35.34;100015.34;4197478;28;20078;-63
2022/03/26 07:55:43;;;;;;;27.98;18.98;;;;;;;20.65;35.28;100009.78;4197413;28;20074;-62
2022/03/26 07:57:47;;;;;;;25.30;18.20;;;;;;;20.65;35.75;100003.41;4197427;28;20036;-62
2022/03/26 07:59:49;;;;;;;23.00;16.13;;;;;;;20.65;35.36;100000.63;4205076;28;20040;-63
2022/03/26 08:01:50;;;;;;;24.52;18.42;;;;;;;20.65;35.22;100003.41;4196555;28;20041;-63
2022/03/26 08:03:54;;;;;;;24.42;18.42;;;;;;;20.65;35.32;99998.66;4196585;28;20109;-63
2022/03/26 08:05:56;;;;;;;21.98;16.02;;;;;;;20.65;35.60;99987.53;4197389;28;20472;-63
2022/03/26 08:07:58;;;;;;;23.15;18.15;;;;;;;20.64;35.33;99991.47;4197255;28;20040;-63
2022/03/26 08:10:02;;;;;;;23.77;16.40;;;;;;;20.64;35.41;99991.47;4197426;28;20538;-63
2022/03/26 08:12:04;;;;;;;24.25;17.58;;;;;;;20.65;35.34;99987.53;4196960;28;20106;-63
2022/03/26 08:14:05;;;;;;;21.17;16.65;;;;;;;20.64;35.66;99991.47;4197263;28;20036;-63
2022/03/26 08:16:09;;;;;;;26.80;16.13;;;;;;;20.62;35.24;99988.16;4197182;28;20036;-64
2022/03/26 08:18:11;;;;;;;23.23;17.73;;;;;;;20.64;35.49;99991.47;4199599;28;20078;-63
2022/03/26 08:20:15;;;;;;;21.75;16.83;;;;;;;20.64;35.64;99985.06;4215750;28;20052;-63
2022/03/26 08:22:16;;;;;;;20.48;16.05;;;;;;;20.65;35.29;99995.06;4214686;28;20086;-63
2022/03/26 08:24:17;;;;;;;21.40;16.50;;;;;;;20.63;35.52;99989.81;4200352;28;20032;-63
2022/03/26 08:26:29;;;;;;;22.73;15.88;;;;;;;20.64;35.49;99985.06;4208695;28;20040;-64
2022/03/26 08:28:31;;;;;;;22.23;15.65;;;;;;;20.64;35.08;99991.47;4215112;28;20052;-63
2022/03/26 08:30:32;;;;;;;21.48;16.63;;;;;;;20.63;35.20;99986.22;4213310;28;20052;-63
2022/03/26 08:32:34;;;;;;;24.05;16.80;;;;;;;20.63;35.35;99998.16;4210387;28;20071;-63
2022/03/26 08:34:35;;;;;;;21.17;15.15;;;;;;;20.63;35.50;100003.72;4199625;28;20036;-63
2022/03/26 08:36:37;;;;;;;19.73;15.43;;;;;;;20.63;35.14;99995.38;4199803;28;20037;-63
2022/03/26 08:38:39;;;;;;;21.65;15.07;;;;;;;20.62;35.67;100002.06;4206327;28;20490;-63
2022/03/26 08:40:41;;;;;;;21.40;14.80;;;;;;;20.62;35.36;99999.28;4204315;28;20122;-63
2022/03/26 08:42:42;;;;;;;21.58;15.57;;;;;;;20.62;35.74;99999.28;4199359;28;20040;-64
2022/03/26 08:44:46;;;;;;;20.38;15.43;;;;;;;20.60;35.65;99993.19;4199584;28;20114;-64
2022/03/26 08:46:48;;;;;;;19.73;14.40;;;;;;;20.62;35.59;100004.84;4199943;28;20048;-63
2022/03/26 08:48:50;;;;;;;20.13;15.68;;;;;;;20.62;35.22;99993.72;4200005;28;20189;-64
2022/03/26 08:50:55;;;;;;;18.63;14.48;;;;;;;20.57;35.54;99991.00;4199888;28;20044;-63
2022/03/26 08:52:56;;;;;;;17.77;13.55;;;;;;;20.62;35.60;99996.50;4199118;28;20040;-63
2022/03/26 08:54:57;;;;;;;19.02;14.13;;;;;;;20.62;35.51;99993.72;4199904;28;20097;-63
2022/03/26 08:56:59;;;;;;;19.58;14.30;;;;;;;20.62;35.28;99993.72;4200120;28;20044;-63
2022/03/26 08:59:00;;;;;;;17.98;14.20;;;;;;;20.63;35.29;99989.00;4199732;28;20037;-63
2022/03/26 09:01:02;;;;;;;17.63;13.57;;;;;;;20.62;35.35;99982.59;4199816;28;20078;-64
2022/03/26 09:03:04;;;;;;;18.65;14.18;;;;;;;20.61;35.67;99980.94;4199473;28;20071;-64
2022/03/26 09:05:06;;;;;;;17.13;12.27;;;;;;;20.63;35.36;99978.69;4199669;28;20044;-63
2022/03/26 09:07:08;;;;;;;17.83;13.02;;;;;;;20.63;35.30;99975.91;4199365;28;20097;-63
2022/03/26 09:09:09;;;;;;;18.55;13.07;;;;;;;20.62;35.00;99971.50;4199496;28;20044;-63
2022/03/26 09:11:11;;;;;;;17.63;13.05;;;;;;;20.61;35.12;99974.56;4199232;28;20036;-64
2022/03/26 09:13:13;;;;;;;16.25;12.30;;;;;;;20.62;35.18;99977.03;4198449;28;20098;-64
2022/03/26 09:15:15;;;;;;;17.05;12.77;;;;;;;20.63;35.08;99972.31;4198629;28;20109;-64
2022/03/26 09:17:16;;;;;;;18.73;12.98;;;;;;;20.53;35.46;99956.63;4198484;28;20032;-64
2022/03/26 09:19:18;;;;;;;16.55;11.77;;;;;;;20.62;35.51;99974.28;4199419;28;20377;-64
2022/03/26 09:21:19;;;;;;;14.40;11.40;;;;;;;20.62;35.07;99970.63;4198182;28;20032;-64